Meteo Giornale » Osservazioni meteo Italia » Cervia

ore: 13:55 - Osservazioni Meteo Cervia
Lat. 44° 13' N Lon. 12° 18' E Alt. 6 metri s.l.m.

sereno Europe/Rome

23 °C

Sereno

Temp. 24 Ore

11 °C

23 °C

Est

16.7 Km/h

Dew point 12 °C

Umidità 49 %

Visibilità  10 Km

Il sole sorge alle ore 05:31

Il sole tramonta alle ore 20:44

Data e Ora Cielo e Fenomeni T °C DP °C Um. % Pres. hPa Vis. km Vento km/h
Oggi h: 13:55 sereno Sereno 23 12 49 1019 10 E 16.7
Oggi h: 12:55 sereno Sereno 22 13 56 1019 10 E 14.8
Oggi h: 11:55 sereno Sereno 22 12 53 1019 10 E 16.7
Oggi h: 10:55 sereno Sereno 21 12 56 1019 10 E/SE 9.3
Oggi h: 09:55 sereno Sereno 19 14 72 1019 10 N 0
Oggi h: 08:55 sereno Sereno 16 13 82 1019 10 N 0
Oggi h: 07:55 sereno Sereno 14 12 87 1019 10 N 0
Oggi h: 06:55 sereno Sereno 12 11 93 1018 10 N 0
Oggi h: 05:55 sereno Sereno 11 11 100 1018 10 N 0
Oggi h: 04:55 sereno Sereno 11 11 100 1018 10 N 1.8
Oggi h: 03:55 sereno Sereno 12 12 100 1018 10 N 0
Oggi h: 02:55 sereno Sereno 12 12 100 1018 10 N 0
Oggi h: 00:55 sereno Sereno 13 11 87 1018 10 N 1.8
Ieri h: 23:55 sereno Sereno 14 11 82 1018 10 N 3.7
Ieri h: 22:55 sereno Sereno 15 11 76 1018 10 N 5.5
Ieri h: 21:55 sereno Sereno 17 10 63 1017 10 SE 7.4
Ieri h: 20:55 sereno Sereno 18 10 59 1017 10 S/SE 11.1
Ieri h: 19:55 sereno Sereno 20 8 45 1016 10 SE 16.7
Ieri h: 18:55 sereno Sereno 20 8 45 1016 10 SE 25.9
Ieri h: 17:55 sereno Sereno 21 9 46 1016 10 SE 25.9
Ieri h: 16:55 sereno Sereno 21 9 46 1017 10 SE 33.3
Ieri h: 15:55 sereno Sereno 22 10 46 1017 10 E/SE 29.6
Ieri h: 14:55 sereno Sereno 21 14 64 1017 10 E/SE 31.5